sensor_id;sensor_type;location;lat;lon;timestamp;P1;durP1;ratioP1;P2;durP2;ratioP2
40757;SDS011;26462;47.384;19.218;2022-12-18T00:01:28;49.80;;;13.77;;
40757;SDS011;26462;47.384;19.218;2022-12-18T00:03:57;62.13;;;21.15;;
40757;SDS011;26462;47.384;19.218;2022-12-18T00:06:26;54.22;;;18.58;;
40757;SDS011;26462;47.384;19.218;2022-12-18T00:08:55;58.80;;;19.65;;
40757;SDS011;26462;47.384;19.218;2022-12-18T00:11:25;65.57;;;21.77;;
40757;SDS011;26462;47.384;19.218;2022-12-18T00:13:55;65.80;;;23.52;;
40757;SDS011;26462;47.384;19.218;2022-12-18T00:16:23;66.35;;;20.45;;
40757;SDS011;26462;47.384;19.218;2022-12-18T00:18:53;52.75;;;18.48;;
40757;SDS011;26462;47.384;19.218;2022-12-18T00:21:22;52.92;;;20.83;;
40757;SDS011;26462;47.384;19.218;2022-12-18T00:23:50;56.28;;;18.25;;
40757;SDS011;26462;47.384;19.218;2022-12-18T00:26:28;46.45;;;18.10;;
40757;SDS011;26462;47.384;19.218;2022-12-18T00:29:00;51.28;;;17.33;;
40757;SDS011;26462;47.384;19.218;2022-12-18T00:31:31;44.05;;;14.45;;
40757;SDS011;26462;47.384;19.218;2022-12-18T00:33:59;43.80;;;14.45;;
40757;SDS011;26462;47.384;19.218;2022-12-18T00:36:36;45.97;;;14.63;;
40757;SDS011;26462;47.384;19.218;2022-12-18T00:39:04;47.60;;;14.70;;
40757;SDS011;26462;47.384;19.218;2022-12-18T00:41:32;51.33;;;14.82;;
40757;SDS011;26462;47.384;19.218;2022-12-18T00:44:17;43.75;;;13.70;;
40757;SDS011;26462;47.384;19.218;2022-12-18T00:46:45;47.38;;;15.05;;
40757;SDS011;26462;47.384;19.218;2022-12-18T00:49:14;46.13;;;15.68;;
40757;SDS011;26462;47.384;19.218;2022-12-18T00:51:43;52.95;;;14.63;;
40757;SDS011;26462;47.384;19.218;2022-12-18T00:54:10;48.95;;;14.00;;
40757;SDS011;26462;47.384;19.218;2022-12-18T00:56:38;43.58;;;12.63;;
40757;SDS011;26462;47.384;19.218;2022-12-18T00:59:13;44.33;;;14.68;;
40757;SDS011;26462;47.384;19.218;2022-12-18T01:01:41;44.60;;;11.30;;
40757;SDS011;26462;47.384;19.218;2022-12-18T01:04:08;38.97;;;12.80;;
40757;SDS011;26462;47.384;19.218;2022-12-18T01:06:36;41.25;;;13.90;;
40757;SDS011;26462;47.384;19.218;2022-12-18T01:09:03;48.53;;;13.18;;
40757;SDS011;26462;47.384;19.218;2022-12-18T01:11:30;48.67;;;14.02;;
40757;SDS011;26462;47.384;19.218;2022-12-18T01:13:57;46.13;;;13.85;;
40757;SDS011;26462;47.384;19.218;2022-12-18T01:16:24;46.92;;;14.45;;
40757;SDS011;26462;47.384;19.218;2022-12-18T01:18:52;37.13;;;12.63;;
40757;SDS011;26462;47.384;19.218;2022-12-18T01:21:21;43.38;;;13.30;;
40757;SDS011;26462;47.384;19.218;2022-12-18T01:23:53;42.78;;;13.68;;
40757;SDS011;26462;47.384;19.218;2022-12-18T01:28:50;42.67;;;13.10;;
40757;SDS011;26462;47.384;19.218;2022-12-18T01:31:20;47.38;;;14.07;;
40757;SDS011;26462;47.384;19.218;2022-12-18T01:33:49;50.20;;;15.48;;
40757;SDS011;26462;47.384;19.218;2022-12-18T01:38:49;54.55;;;16.95;;
40757;SDS011;26462;47.384;19.218;2022-12-18T01:41:18;46.53;;;16.13;;
40757;SDS011;26462;47.384;19.218;2022-12-18T01:43:53;51.58;;;16.38;;
40757;SDS011;26462;47.384;19.218;2022-12-18T01:46:23;42.92;;;14.25;;
40757;SDS011;26462;47.384;19.218;2022-12-18T01:48:58;49.63;;;14.70;;
40757;SDS011;26462;47.384;19.218;2022-12-18T01:51:28;44.70;;;14.70;;
40757;SDS011;26462;47.384;19.218;2022-12-18T01:53:57;45.22;;;14.82;;
40757;SDS011;26462;47.384;19.218;2022-12-18T01:56:26;52.40;;;14.02;;
40757;SDS011;26462;47.384;19.218;2022-12-18T01:59:00;42.38;;;13.25;;
40757;SDS011;26462;47.384;19.218;2022-12-18T02:01:31;44.60;;;13.40;;
40757;SDS011;26462;47.384;19.218;2022-12-18T02:07:07;37.95;;;12.85;;
40757;SDS011;26462;47.384;19.218;2022-12-18T02:09:57;41.47;;;12.90;;
40757;SDS011;26462;47.384;19.218;2022-12-18T02:12:53;44.55;;;12.45;;
40757;SDS011;26462;47.384;19.218;2022-12-18T02:15:57;42.60;;;12.93;;
40757;SDS011;26462;47.384;19.218;2022-12-18T02:18:35;38.97;;;12.80;;
40757;SDS011;26462;47.384;19.218;2022-12-18T02:21:20;42.17;;;13.40;;
40757;SDS011;26462;47.384;19.218;2022-12-18T02:26:50;38.80;;;12.60;;
40757;SDS011;26462;47.384;19.218;2022-12-18T02:29:52;48.22;;;13.25;;
40757;SDS011;26462;47.384;19.218;2022-12-18T02:32:27;54.22;;;13.82;;
40757;SDS011;26462;47.384;19.218;2022-12-18T02:34:57;42.97;;;13.52;;
40757;SDS011;26462;47.384;19.218;2022-12-18T02:37:28;41.95;;;13.80;;
40757;SDS011;26462;47.384;19.218;2022-12-18T02:40:00;48.70;;;14.50;;
40757;SDS011;26462;47.384;19.218;2022-12-18T02:42:30;53.70;;;14.52;;
40757;SDS011;26462;47.384;19.218;2022-12-18T02:44:59;46.97;;;13.32;;
40757;SDS011;26462;47.384;19.218;2022-12-18T02:47:28;46.90;;;14.15;;
40757;SDS011;26462;47.384;19.218;2022-12-18T03:00:53;45.13;;;12.35;;
40757;SDS011;26462;47.384;19.218;2022-12-18T03:03:30;48.60;;;14.27;;
40757;SDS011;26462;47.384;19.218;2022-12-18T03:06:24;40.53;;;12.27;;
40757;SDS011;26462;47.384;19.218;2022-12-18T03:08:58;44.53;;;12.15;;
40757;SDS011;26462;47.384;19.218;2022-12-18T03:11:30;46.22;;;13.13;;
40757;SDS011;26462;47.384;19.218;2022-12-18T03:14:19;40.53;;;12.80;;
40757;SDS011;26462;47.384;19.218;2022-12-18T03:16:50;41.08;;;11.48;;
40757;SDS011;26462;47.384;19.218;2022-12-18T03:19:21;41.75;;;14.15;;
40757;SDS011;26462;47.384;19.218;2022-12-18T03:21:57;48.65;;;14.02;;
40757;SDS011;26462;47.384;19.218;2022-12-18T03:24:35;44.63;;;12.65;;
40757;SDS011;26462;47.384;19.218;2022-12-18T03:27:07;41.67;;;12.45;;
40757;SDS011;26462;47.384;19.218;2022-12-18T03:29:48;39.90;;;11.97;;
40757;SDS011;26462;47.384;19.218;2022-12-18T03:32:26;47.20;;;13.02;;
40757;SDS011;26462;47.384;19.218;2022-12-18T03:34:59;56.47;;;16.35;;
40757;SDS011;26462;47.384;19.218;2022-12-18T03:37:34;59.35;;;17.17;;
40757;SDS011;26462;47.384;19.218;2022-12-18T03:40:02;44.63;;;14.85;;
40757;SDS011;26462;47.384;19.218;2022-12-18T03:42:44;45.13;;;14.35;;
40757;SDS011;26462;47.384;19.218;2022-12-18T03:45:26;43.22;;;14.27;;
40757;SDS011;26462;47.384;19.218;2022-12-18T03:48:06;37.08;;;13.45;;
40757;SDS011;26462;47.384;19.218;2022-12-18T03:50:45;50.10;;;15.90;;
40757;SDS011;26462;47.384;19.218;2022-12-18T03:56:00;50.50;;;16.75;;
40757;SDS011;26462;47.384;19.218;2022-12-18T03:58:34;43.15;;;13.70;;
40757;SDS011;26462;47.384;19.218;2022-12-18T04:01:34;39.42;;;12.15;;
40757;SDS011;26462;47.384;19.218;2022-12-18T04:04:11;49.47;;;14.60;;
40757;SDS011;26462;47.384;19.218;2022-12-18T04:06:42;47.45;;;12.48;;
40757;SDS011;26462;47.384;19.218;2022-12-18T04:09:12;50.08;;;14.52;;
40757;SDS011;26462;47.384;19.218;2022-12-18T04:11:43;48.00;;;13.45;;
40757;SDS011;26462;47.384;19.218;2022-12-18T04:14:13;61.25;;;14.43;;
40757;SDS011;26462;47.384;19.218;2022-12-18T04:16:46;46.00;;;13.93;;
40757;SDS011;26462;47.384;19.218;2022-12-18T04:19:15;42.88;;;13.70;;
40757;SDS011;26462;47.384;19.218;2022-12-18T04:21:45;55.00;;;14.27;;
40757;SDS011;26462;47.384;19.218;2022-12-18T04:24:13;52.22;;;16.02;;
40757;SDS011;26462;47.384;19.218;2022-12-18T04:26:49;76.38;;;20.98;;
40757;SDS011;26462;47.384;19.218;2022-12-18T04:29:21;77.85;;;24.40;;
40757;SDS011;26462;47.384;19.218;2022-12-18T04:31:48;104.65;;;32.83;;
40757;SDS011;26462;47.384;19.218;2022-12-18T04:34:15;113.57;;;34.10;;
40757;SDS011;26462;47.384;19.218;2022-12-18T04:36:48;94.53;;;28.27;;
40757;SDS011;26462;47.384;19.218;2022-12-18T04:39:16;96.18;;;30.77;;
40757;SDS011;26462;47.384;19.218;2022-12-18T04:41:44;102.78;;;33.45;;
40757;SDS011;26462;47.384;19.218;2022-12-18T04:44:12;75.63;;;25.95;;
40757;SDS011;26462;47.384;19.218;2022-12-18T04:46:39;84.43;;;25.50;;
40757;SDS011;26462;47.384;19.218;2022-12-18T04:49:06;86.65;;;25.10;;
40757;SDS011;26462;47.384;19.218;2022-12-18T04:51:33;82.43;;;23.75;;
40757;SDS011;26462;47.384;19.218;2022-12-18T04:54:00;80.63;;;23.52;;
40757;SDS011;26462;47.384;19.218;2022-12-18T04:56:29;78.95;;;24.33;;
40757;SDS011;26462;47.384;19.218;2022-12-18T04:58:57;87.47;;;23.35;;
40757;SDS011;26462;47.384;19.218;2022-12-18T05:01:24;68.55;;;22.27;;
40757;SDS011;26462;47.384;19.218;2022-12-18T05:03:59;72.13;;;23.38;;
40757;SDS011;26462;47.384;19.218;2022-12-18T05:06:27;72.22;;;22.00;;
40757;SDS011;26462;47.384;19.218;2022-12-18T05:08:54;72.07;;;22.05;;
40757;SDS011;26462;47.384;19.218;2022-12-18T05:11:21;71.15;;;22.63;;
40757;SDS011;26462;47.384;19.218;2022-12-18T05:13:48;72.40;;;21.55;;
40757;SDS011;26462;47.384;19.218;2022-12-18T05:16:15;70.03;;;22.73;;
40757;SDS011;26462;47.384;19.218;2022-12-18T05:18:43;67.07;;;22.73;;
40757;SDS011;26462;47.384;19.218;2022-12-18T05:21:10;73.13;;;22.45;;
40757;SDS011;26462;47.384;19.218;2022-12-18T05:23:37;62.33;;;18.85;;
40757;SDS011;26462;47.384;19.218;2022-12-18T05:26:05;70.57;;;21.48;;
40757;SDS011;26462;47.384;19.218;2022-12-18T05:28:35;63.53;;;21.00;;
40757;SDS011;26462;47.384;19.218;2022-12-18T05:31:03;72.65;;;18.67;;
40757;SDS011;26462;47.384;19.218;2022-12-18T05:33:31;69.88;;;20.63;;
40757;SDS011;26462;47.384;19.218;2022-12-18T05:36:00;67.93;;;21.27;;
40757;SDS011;26462;47.384;19.218;2022-12-18T05:38:29;69.00;;;21.83;;
40757;SDS011;26462;47.384;19.218;2022-12-18T05:40:57;74.47;;;21.17;;
40757;SDS011;26462;47.384;19.218;2022-12-18T05:43:25;77.35;;;22.42;;
40757;SDS011;26462;47.384;19.218;2022-12-18T05:45:52;69.22;;;21.48;;
40757;SDS011;26462;47.384;19.218;2022-12-18T05:48:20;75.38;;;24.00;;
40757;SDS011;26462;47.384;19.218;2022-12-18T05:50:49;80.35;;;22.15;;
40757;SDS011;26462;47.384;19.218;2022-12-18T05:53:17;71.13;;;21.75;;
40757;SDS011;26462;47.384;19.218;2022-12-18T05:55:45;78.18;;;21.02;;
40757;SDS011;26462;47.384;19.218;2022-12-18T05:58:13;66.50;;;20.90;;
40757;SDS011;26462;47.384;19.218;2022-12-18T06:00:42;94.60;;;20.90;;
40757;SDS011;26462;47.384;19.218;2022-12-18T06:03:11;87.70;;;24.77;;
40757;SDS011;26462;47.384;19.218;2022-12-18T06:05:43;89.35;;;26.35;;
40757;SDS011;26462;47.384;19.218;2022-12-18T06:08:12;93.38;;;29.02;;
40757;SDS011;26462;47.384;19.218;2022-12-18T06:10:40;93.50;;;27.42;;
40757;SDS011;26462;47.384;19.218;2022-12-18T06:13:07;95.32;;;24.88;;
40757;SDS011;26462;47.384;19.218;2022-12-18T06:15:37;83.90;;;23.63;;
40757;SDS011;26462;47.384;19.218;2022-12-18T06:18:07;144.07;;;34.30;;
40757;SDS011;26462;47.384;19.218;2022-12-18T06:20:35;158.27;;;44.50;;
40757;SDS011;26462;47.384;19.218;2022-12-18T06:23:03;132.70;;;40.10;;
40757;SDS011;26462;47.384;19.218;2022-12-18T06:25:30;125.70;;;34.70;;
40757;SDS011;26462;47.384;19.218;2022-12-18T06:27:57;113.72;;;31.30;;
40757;SDS011;26462;47.384;19.218;2022-12-18T06:30:24;99.32;;;27.48;;
40757;SDS011;26462;47.384;19.218;2022-12-18T06:32:51;111.22;;;31.05;;
40757;SDS011;26462;47.384;19.218;2022-12-18T06:35:22;113.25;;;31.88;;
40757;SDS011;26462;47.384;19.218;2022-12-18T06:37:49;132.88;;;33.65;;
40757;SDS011;26462;47.384;19.218;2022-12-18T06:40:17;115.90;;;37.28;;
40757;SDS011;26462;47.384;19.218;2022-12-18T06:42:44;132.60;;;39.20;;
40757;SDS011;26462;47.384;19.218;2022-12-18T06:45:12;136.73;;;38.53;;
40757;SDS011;26462;47.384;19.218;2022-12-18T06:47:39;121.63;;;36.35;;
40757;SDS011;26462;47.384;19.218;2022-12-18T06:50:06;100.90;;;33.15;;
40757;SDS011;26462;47.384;19.218;2022-12-18T06:52:33;111.53;;;33.47;;
40757;SDS011;26462;47.384;19.218;2022-12-18T06:55:00;110.50;;;32.92;;
40757;SDS011;26462;47.384;19.218;2022-12-18T06:57:27;114.13;;;32.58;;
40757;SDS011;26462;47.384;19.218;2022-12-18T06:59:55;117.68;;;31.55;;
40757;SDS011;26462;47.384;19.218;2022-12-18T07:02:22;105.65;;;30.98;;
40757;SDS011;26462;47.384;19.218;2022-12-18T07:04:49;110.50;;;29.98;;
40757;SDS011;26462;47.384;19.218;2022-12-18T07:07:16;101.80;;;31.20;;
40757;SDS011;26462;47.384;19.218;2022-12-18T07:09:43;117.35;;;33.13;;
40757;SDS011;26462;47.384;19.218;2022-12-18T07:12:10;105.03;;;28.63;;
40757;SDS011;26462;47.384;19.218;2022-12-18T07:14:37;99.22;;;29.50;;
40757;SDS011;26462;47.384;19.218;2022-12-18T07:17:04;94.57;;;29.95;;
40757;SDS011;26462;47.384;19.218;2022-12-18T07:19:32;99.00;;;30.13;;
40757;SDS011;26462;47.384;19.218;2022-12-18T07:22:00;107.53;;;31.88;;
40757;SDS011;26462;47.384;19.218;2022-12-18T07:24:28;129.68;;;35.55;;
40757;SDS011;26462;47.384;19.218;2022-12-18T07:27:01;117.47;;;38.80;;
40757;SDS011;26462;47.384;19.218;2022-12-18T07:29:32;133.85;;;39.08;;
40757;SDS011;26462;47.384;19.218;2022-12-18T07:32:00;145.60;;;41.80;;
40757;SDS011;26462;47.384;19.218;2022-12-18T07:34:27;150.35;;;44.45;;
40757;SDS011;26462;47.384;19.218;2022-12-18T07:36:54;159.80;;;45.83;;
40757;SDS011;26462;47.384;19.218;2022-12-18T07:39:22;144.57;;;43.00;;
40757;SDS011;26462;47.384;19.218;2022-12-18T07:41:52;157.00;;;49.03;;
40757;SDS011;26462;47.384;19.218;2022-12-18T07:44:39;148.60;;;45.80;;
40757;SDS011;26462;47.384;19.218;2022-12-18T07:47:06;171.65;;;50.65;;
40757;SDS011;26462;47.384;19.218;2022-12-18T07:49:37;199.85;;;63.90;;
40757;SDS011;26462;47.384;19.218;2022-12-18T07:52:08;203.20;;;61.78;;
40757;SDS011;26462;47.384;19.218;2022-12-18T07:54:36;226.57;;;68.90;;
40757;SDS011;26462;47.384;19.218;2022-12-18T07:57:09;259.15;;;82.75;;
40757;SDS011;26462;47.384;19.218;2022-12-18T07:59:56;205.68;;;64.65;;
40757;SDS011;26462;47.384;19.218;2022-12-18T08:02:24;164.32;;;49.60;;
40757;SDS011;26462;47.384;19.218;2022-12-18T08:04:51;153.70;;;46.92;;
40757;SDS011;26462;47.384;19.218;2022-12-18T08:07:18;155.38;;;47.80;;
40757;SDS011;26462;47.384;19.218;2022-12-18T08:09:49;156.88;;;41.55;;
40757;SDS011;26462;47.384;19.218;2022-12-18T08:12:16;180.88;;;49.88;;
40757;SDS011;26462;47.384;19.218;2022-12-18T08:14:43;212.13;;;56.85;;
40757;SDS011;26462;47.384;19.218;2022-12-18T08:17:11;192.15;;;54.40;;
40757;SDS011;26462;47.384;19.218;2022-12-18T08:19:38;188.00;;;56.13;;
40757;SDS011;26462;47.384;19.218;2022-12-18T08:22:09;152.82;;;44.20;;
40757;SDS011;26462;47.384;19.218;2022-12-18T08:24:36;150.55;;;44.25;;
40757;SDS011;26462;47.384;19.218;2022-12-18T08:27:03;189.32;;;59.33;;
40757;SDS011;26462;47.384;19.218;2022-12-18T08:29:51;158.27;;;51.92;;
40757;SDS011;26462;47.384;19.218;2022-12-18T08:32:18;146.05;;;47.03;;
40757;SDS011;26462;47.384;19.218;2022-12-18T08:34:46;111.35;;;34.70;;
40757;SDS011;26462;47.384;19.218;2022-12-18T08:37:15;88.38;;;30.15;;
40757;SDS011;26462;47.384;19.218;2022-12-18T08:39:42;78.25;;;25.58;;
40757;SDS011;26462;47.384;19.218;2022-12-18T08:42:10;74.03;;;25.08;;
40757;SDS011;26462;47.384;19.218;2022-12-18T08:44:58;68.10;;;23.42;;
40757;SDS011;26462;47.384;19.218;2022-12-18T08:47:26;74.53;;;24.98;;
40757;SDS011;26462;47.384;19.218;2022-12-18T08:49:53;67.85;;;21.20;;
40757;SDS011;26462;47.384;19.218;2022-12-18T08:52:23;72.03;;;21.35;;
40757;SDS011;26462;47.384;19.218;2022-12-18T08:54:51;81.10;;;25.77;;
40757;SDS011;26462;47.384;19.218;2022-12-18T08:57:18;69.97;;;23.63;;
40757;SDS011;26462;47.384;19.218;2022-12-18T08:59:45;81.65;;;28.25;;
40757;SDS011;26462;47.384;19.218;2022-12-18T09:02:13;89.63;;;27.88;;
40757;SDS011;26462;47.384;19.218;2022-12-18T09:04:40;90.07;;;29.13;;
40757;SDS011;26462;47.384;19.218;2022-12-18T09:07:08;83.97;;;27.92;;
40757;SDS011;26462;47.384;19.218;2022-12-18T09:09:35;74.30;;;27.42;;
40757;SDS011;26462;47.384;19.218;2022-12-18T09:12:03;70.72;;;20.77;;
40757;SDS011;26462;47.384;19.218;2022-12-18T09:14:30;61.92;;;19.75;;
40757;SDS011;26462;47.384;19.218;2022-12-18T09:16:57;82.18;;;24.63;;
40757;SDS011;26462;47.384;19.218;2022-12-18T09:19:27;116.32;;;37.10;;
40757;SDS011;26462;47.384;19.218;2022-12-18T09:21:55;73.20;;;25.52;;
40757;SDS011;26462;47.384;19.218;2022-12-18T09:24:22;54.83;;;18.92;;
40757;SDS011;26462;47.384;19.218;2022-12-18T09:26:58;81.43;;;29.75;;
40757;SDS011;26462;47.384;19.218;2022-12-18T09:29:26;81.38;;;27.33;;
40757;SDS011;26462;47.384;19.218;2022-12-18T09:31:55;65.97;;;22.42;;
40757;SDS011;26462;47.384;19.218;2022-12-18T09:34:22;77.32;;;23.67;;
40757;SDS011;26462;47.384;19.218;2022-12-18T09:36:50;59.00;;;18.55;;
40757;SDS011;26462;47.384;19.218;2022-12-18T09:39:18;45.38;;;17.38;;
40757;SDS011;26462;47.384;19.218;2022-12-18T09:41:55;68.53;;;23.98;;
40757;SDS011;26462;47.384;19.218;2022-12-18T09:44:25;54.95;;;16.92;;
40757;SDS011;26462;47.384;19.218;2022-12-18T09:47:45;52.67;;;19.33;;
40757;SDS011;26462;47.384;19.218;2022-12-18T09:50:17;56.80;;;19.67;;
40757;SDS011;26462;47.384;19.218;2022-12-18T09:53:04;48.72;;;15.93;;
40757;SDS011;26462;47.384;19.218;2022-12-18T09:55:41;67.93;;;20.88;;
40757;SDS011;26462;47.384;19.218;2022-12-18T09:58:15;55.50;;;18.35;;
40757;SDS011;26462;47.384;19.218;2022-12-18T10:00:52;54.42;;;17.38;;
40757;SDS011;26462;47.384;19.218;2022-12-18T10:03:20;50.40;;;17.05;;
40757;SDS011;26462;47.384;19.218;2022-12-18T10:10:47;52.95;;;18.67;;
40757;SDS011;26462;47.384;19.218;2022-12-18T10:13:23;51.35;;;17.95;;
40757;SDS011;26462;47.384;19.218;2022-12-18T10:16:01;52.53;;;15.98;;
40757;SDS011;26462;47.384;19.218;2022-12-18T10:19:37;45.97;;;15.93;;
40757;SDS011;26462;47.384;19.218;2022-12-18T10:22:03;42.28;;;14.75;;
40757;SDS011;26462;47.384;19.218;2022-12-18T10:24:53;57.40;;;18.50;;
40757;SDS011;26462;47.384;19.218;2022-12-18T10:27:28;51.60;;;17.15;;
40757;SDS011;26462;47.384;19.218;2022-12-18T10:29:58;52.15;;;17.10;;
40757;SDS011;26462;47.384;19.218;2022-12-18T10:32:28;45.30;;;15.18;;
40757;SDS011;26462;47.384;19.218;2022-12-18T10:34:57;47.38;;;15.80;;
40757;SDS011;26462;47.384;19.218;2022-12-18T10:37:28;54.30;;;17.90;;
40757;SDS011;26462;47.384;19.218;2022-12-18T10:40:08;54.53;;;18.90;;
40757;SDS011;26462;47.384;19.218;2022-12-18T10:43:03;55.50;;;19.75;;
40757;SDS011;26462;47.384;19.218;2022-12-18T10:51:27;108.10;;;33.03;;
40757;SDS011;26462;47.384;19.218;2022-12-18T10:53:59;101.22;;;29.05;;
40757;SDS011;26462;47.384;19.218;2022-12-18T10:56:30;51.75;;;17.27;;
40757;SDS011;26462;47.384;19.218;2022-12-18T10:59:02;132.93;;;41.05;;
40757;SDS011;26462;47.384;19.218;2022-12-18T11:02:23;54.80;;;19.25;;
40757;SDS011;26462;47.384;19.218;2022-12-18T11:06:58;42.40;;;16.20;;
40757;SDS011;26462;47.384;19.218;2022-12-18T11:09:38;47.72;;;16.55;;
40757;SDS011;26462;47.384;19.218;2022-12-18T11:15:19;52.05;;;19.88;;
40757;SDS011;26462;47.384;19.218;2022-12-18T11:17:49;47.00;;;16.23;;
40757;SDS011;26462;47.384;19.218;2022-12-18T11:20:34;43.35;;;15.82;;
40757;SDS011;26462;47.384;19.218;2022-12-18T11:23:05;44.67;;;16.27;;
40757;SDS011;26462;47.384;19.218;2022-12-18T11:25:39;46.83;;;17.70;;
40757;SDS011;26462;47.384;19.218;2022-12-18T11:31:18;44.47;;;14.65;;
40757;SDS011;26462;47.384;19.218;2022-12-18T11:37:00;56.10;;;20.23;;
40757;SDS011;26462;47.384;19.218;2022-12-18T11:39:37;50.65;;;21.10;;
40757;SDS011;26462;47.384;19.218;2022-12-18T11:42:24;57.35;;;19.25;;
40757;SDS011;26462;47.384;19.218;2022-12-18T11:45:07;62.10;;;21.52;;
40757;SDS011;26462;47.384;19.218;2022-12-18T11:47:41;53.38;;;20.17;;
40757;SDS011;26462;47.384;19.218;2022-12-18T11:50:17;57.17;;;20.60;;
40757;SDS011;26462;47.384;19.218;2022-12-18T11:52:48;60.78;;;23.63;;
40757;SDS011;26462;47.384;19.218;2022-12-18T11:58:29;72.70;;;25.25;;
40757;SDS011;26462;47.384;19.218;2022-12-18T12:01:59;55.47;;;18.23;;
40757;SDS011;26462;47.384;19.218;2022-12-18T12:10:28;50.78;;;18.88;;
40757;SDS011;26462;47.384;19.218;2022-12-18T12:18:25;48.78;;;16.98;;
40757;SDS011;26462;47.384;19.218;2022-12-18T12:42:20;101.72;;;30.67;;
40757;SDS011;26462;47.384;19.218;2022-12-18T13:11:52;52.63;;;20.38;;
40757;SDS011;26462;47.384;19.218;2022-12-18T13:36:54;41.67;;;14.98;;
40757;SDS011;26462;47.384;19.218;2022-12-18T13:39:43;41.88;;;15.35;;
40757;SDS011;26462;47.384;19.218;2022-12-18T13:48:15;92.88;;;30.13;;
40757;SDS011;26462;47.384;19.218;2022-12-18T13:51:04;58.35;;;20.38;;
40757;SDS011;26462;47.384;19.218;2022-12-18T14:08:57;56.80;;;24.77;;
40757;SDS011;26462;47.384;19.218;2022-12-18T14:11:26;48.88;;;17.90;;
40757;SDS011;26462;47.384;19.218;2022-12-18T14:13:54;51.50;;;17.20;;
40757;SDS011;26462;47.384;19.218;2022-12-18T14:16:23;50.63;;;17.45;;
40757;SDS011;26462;47.384;19.218;2022-12-18T14:18:54;77.95;;;28.98;;
40757;SDS011;26462;47.384;19.218;2022-12-18T14:21:40;73.15;;;26.70;;
40757;SDS011;26462;47.384;19.218;2022-12-18T14:24:14;63.53;;;23.65;;
40757;SDS011;26462;47.384;19.218;2022-12-18T14:26:45;65.20;;;29.33;;
40757;SDS011;26462;47.384;19.218;2022-12-18T14:29:23;57.63;;;24.38;;
40757;SDS011;26462;47.384;19.218;2022-12-18T14:32:09;56.05;;;20.25;;
40757;SDS011;26462;47.384;19.218;2022-12-18T14:34:45;53.22;;;19.98;;
40757;SDS011;26462;47.384;19.218;2022-12-18T14:37:20;46.70;;;17.42;;
40757;SDS011;26462;47.384;19.218;2022-12-18T14:40:11;62.10;;;23.42;;
40757;SDS011;26462;47.384;19.218;2022-12-18T14:42:40;62.88;;;26.90;;
40757;SDS011;26462;47.384;19.218;2022-12-18T14:48:20;48.15;;;21.58;;
40757;SDS011;26462;47.384;19.218;2022-12-18T14:51:00;57.08;;;21.50;;
40757;SDS011;26462;47.384;19.218;2022-12-18T14:53:34;51.00;;;20.17;;
40757;SDS011;26462;47.384;19.218;2022-12-18T14:58:45;54.60;;;21.88;;
40757;SDS011;26462;47.384;19.218;2022-12-18T15:01:18;52.65;;;21.65;;
40757;SDS011;26462;47.384;19.218;2022-12-18T15:04:25;67.15;;;23.17;;
40757;SDS011;26462;47.384;19.218;2022-12-18T15:07:05;111.30;;;34.58;;
40757;SDS011;26462;47.384;19.218;2022-12-18T15:09:40;193.07;;;54.83;;
40757;SDS011;26462;47.384;19.218;2022-12-18T15:15:00;117.07;;;41.50;;
40757;SDS011;26462;47.384;19.218;2022-12-18T15:17:28;103.75;;;35.63;;
40757;SDS011;26462;47.384;19.218;2022-12-18T15:20:03;91.60;;;27.98;;
40757;SDS011;26462;47.384;19.218;2022-12-18T15:22:37;83.72;;;26.27;;
40757;SDS011;26462;47.384;19.218;2022-12-18T15:25:20;72.20;;;24.40;;
40757;SDS011;26462;47.384;19.218;2022-12-18T15:27:59;62.05;;;21.05;;
40757;SDS011;26462;47.384;19.218;2022-12-18T15:30:27;76.38;;;23.25;;
40757;SDS011;26462;47.384;19.218;2022-12-18T15:36:02;69.68;;;23.60;;
40757;SDS011;26462;47.384;19.218;2022-12-18T15:38:32;71.57;;;24.40;;
40757;SDS011;26462;47.384;19.218;2022-12-18T15:41:00;79.88;;;26.70;;
40757;SDS011;26462;47.384;19.218;2022-12-18T15:43:33;76.63;;;26.92;;
40757;SDS011;26462;47.384;19.218;2022-12-18T15:48:43;73.15;;;26.80;;
40757;SDS011;26462;47.384;19.218;2022-12-18T15:53:44;81.03;;;27.88;;
40757;SDS011;26462;47.384;19.218;2022-12-18T15:56:15;78.97;;;27.70;;
40757;SDS011;26462;47.384;19.218;2022-12-18T15:59:04;73.43;;;25.80;;
40757;SDS011;26462;47.384;19.218;2022-12-18T16:01:41;69.53;;;25.67;;
40757;SDS011;26462;47.384;19.218;2022-12-18T16:04:13;80.13;;;26.13;;
40757;SDS011;26462;47.384;19.218;2022-12-18T16:06:44;80.78;;;26.63;;
40757;SDS011;26462;47.384;19.218;2022-12-18T16:09:32;73.22;;;25.48;;
40757;SDS011;26462;47.384;19.218;2022-12-18T16:12:00;74.75;;;26.90;;
40757;SDS011;26462;47.384;19.218;2022-12-18T16:14:29;74.88;;;24.27;;
40757;SDS011;26462;47.384;19.218;2022-12-18T16:17:08;79.80;;;26.17;;
40757;SDS011;26462;47.384;19.218;2022-12-18T16:19:37;69.18;;;22.00;;
40757;SDS011;26462;47.384;19.218;2022-12-18T16:22:16;69.75;;;23.02;;
40757;SDS011;26462;47.384;19.218;2022-12-18T16:24:56;68.40;;;23.40;;
40757;SDS011;26462;47.384;19.218;2022-12-18T16:27:24;76.85;;;24.20;;
40757;SDS011;26462;47.384;19.218;2022-12-18T16:29:54;64.90;;;22.10;;
40757;SDS011;26462;47.384;19.218;2022-12-18T16:32:22;80.63;;;24.20;;
40757;SDS011;26462;47.384;19.218;2022-12-18T16:34:51;71.53;;;24.27;;
40757;SDS011;26462;47.384;19.218;2022-12-18T16:37:19;78.53;;;27.17;;
40757;SDS011;26462;47.384;19.218;2022-12-18T16:39:50;95.45;;;28.92;;
40757;SDS011;26462;47.384;19.218;2022-12-18T16:42:20;90.60;;;27.10;;
40757;SDS011;26462;47.384;19.218;2022-12-18T16:44:48;83.18;;;26.13;;
40757;SDS011;26462;47.384;19.218;2022-12-18T16:47:19;78.35;;;23.90;;
40757;SDS011;26462;47.384;19.218;2022-12-18T16:49:48;78.47;;;25.40;;
40757;SDS011;26462;47.384;19.218;2022-12-18T16:52:20;77.57;;;24.95;;
40757;SDS011;26462;47.384;19.218;2022-12-18T16:54:48;84.25;;;25.85;;
40757;SDS011;26462;47.384;19.218;2022-12-18T16:57:18;92.43;;;31.75;;
40757;SDS011;26462;47.384;19.218;2022-12-18T16:59:51;97.70;;;32.20;;
40757;SDS011;26462;47.384;19.218;2022-12-18T17:02:20;102.53;;;30.95;;
40757;SDS011;26462;47.384;19.218;2022-12-18T17:04:53;103.18;;;31.83;;
40757;SDS011;26462;47.384;19.218;2022-12-18T17:07:25;95.45;;;31.08;;
40757;SDS011;26462;47.384;19.218;2022-12-18T17:09:54;95.28;;;30.40;;
40757;SDS011;26462;47.384;19.218;2022-12-18T17:12:23;95.85;;;30.27;;
40757;SDS011;26462;47.384;19.218;2022-12-18T17:14:53;97.18;;;30.85;;
40757;SDS011;26462;47.384;19.218;2022-12-18T17:17:21;98.57;;;34.15;;
40757;SDS011;26462;47.384;19.218;2022-12-18T17:19:50;111.15;;;33.03;;
40757;SDS011;26462;47.384;19.218;2022-12-18T17:22:20;97.85;;;32.80;;
40757;SDS011;26462;47.384;19.218;2022-12-18T17:24:52;104.32;;;28.35;;
40757;SDS011;26462;47.384;19.218;2022-12-18T17:27:20;94.10;;;29.30;;